Roanoke, Texas
Current Conditions -  °F | °C
As of 10:53 PM on Tuesday 25 Nov 2014 (Local Time) from KAFW Reporting Station
Broken Clouds Broken Clouds  
Wind Chill: 40°   Ceiling: 28000
Heat Index: 44°   Visibility: 10mi
Dew Point: 31°   Wind: 8mph
Humidity: 60%   Direction: 190°S
Pressure: 30.11"   Gusts: NA
Location:  33°N, 97.23°W
Report Text: KAFW 260453Z 19007KT 10SM BKN280 07/M01 A3011 RMK AO2 SLP198 T00671006
Loading
Personal Weather Stations






























Interactive Weather Map New forecast layout! Learn more

10-Day Weather Forecast

Advertisements
Track Severe Weather on mobile